Aérodrome :
LOGIN :

S'inscrire | Disclaimer

   EN    FR    IT 

 










Légende :    VFR   VFR Marginal   IFR   IFR Intensif   IFR Très Intensif
Visi : 
Plafond : 
>= 8 km
>= 3000ft
5 à 8 km
1000 à 3000 ft
1500m à 5 km
500 à 1000 ft
800 à 1500m
200 à 500 ft
< 800m
< 200 ft
Symboles :   Orages  Brouillard  Fortes neiges  Fortes précipitations  Vent > 20 kt
SIGMETs :   Divers  Orages  Givrage  Turbulence  Onde Orograph.  Cendres Volcan.






- Altitude de l'aérodrome : 468 ft
- Code IATA : BQT


UMBB - Brest

DERNIER METAR :
  • 151300Z 32005MPS 5000 -SHSN OVC032CB M06/M09 Q1013 R/SNOCLO NOSIG

METARs EXPIRÉS :
  • 151200Z 32005MPS 2700 -SHSN OVC021CB M06/M09 Q1013 R/SNOCLO NOSIG

TAF TAF UMBB
Valide du 15 à 12h jusqu'au 15 à 21h UTC


151100Z 1512/1521 33005G10MPS 5000 BR BKN010
TEMPO 1512/1517 1400 SHSN BR BKN007 BKN016CB
TEMPO 1517/1521 2100 -SHSN BR BKN016CB



MET'MAP, la Météo Aéronautique d'un coup d'oeil ! - Copyright ORBIFLY Décembre 2007 - Disclaimer

ORBIFLY MET'MAP TEAM :

Programmation & Développement : Alexandra Zaïnal
Sur une idée originale de : Baudouin d'Aumeries
Assistance à la programmation : Marc-Olivier Méhu
Soutien technique & logistique : Manuel Goepfert

Contact : metmap@orbifly.com




SOURCES & CREDITS :

   NOAA